Terminal Aerodrome Forecast
Issued by NWS Huntsville, AL

Home | Current Version | Previous Version | Text Only | Print | Product List | Glossary On
Versions: 1 2 3 4 5 6 7 8 9 10 11 12 13 14 15 16 17 18 19 20 21
000
FTUS44 KHUN 222327
TAFHSV
TAF
KHSV 222327Z 2300/2324 25010G15KT 4SM SHRA BR BKN010 OVC025
      TEMPO 2300/2302 VRB15G25KT 2SM +SHRA BR BKN009 OVC015
     FM230300 30015G22KT 5SM -RA OVC009
     FM230900 33017G27KT P6SM OVC015=

USA.gov is the U.S. government's official web portal to all federal, state and local government web resources and services.